Aquinnah, Massachusetts
Current Conditions -  °F | °C
As of 4:53 AM on Monday 22 Dec 2014 (Local Time) from KMVY Reporting Station
Broken Clouds Broken Clouds  
Wind Chill:   Ceiling: 2400
Heat Index:   Visibility: 10mi
Dew Point:   Wind: 5mph
Humidity: 93%   Direction: 10°N
Pressure: 30.32"   Gusts: NA
Location:  41.3536°N, 70.7417°W
Report Text: KMVY 220953Z AUTO 01004KT 10SM BKN024 03/02 A3032 RMK AO2 SLP266 T00330022
Loading
Personal Weather Stations






























Interactive Weather Map New forecast layout! Learn more

10-Day Weather Forecast

Advertisements
Track Severe Weather on mobile